Tropical Cyclones
[Index]
Main Index Home Page Stock Weather Photos Extreme Storms Discussion Storm News and Storm Chasing Reports Tropical Cyclones / Hurricanes / Typhoons Weather Data and Links Wild Fires / Bushfires Weather Observation Techniques Weather Picture Catalogue Tornado Pictures and Reports Stock Video Footage and DVDs for sale
Season 1985-1986 Tropical Cyclone NICHOLAS Track Map
Season 1985-1986 Summaries: [BoM-AU] [JTWC-AU] [JTWC-SIO] [JTWC-SPAC] [JTWC-SH]
<<- Previous TC | JTWC 1985-1986 Season | Next TC ->>

click for intensity scale information  Lat/long Grid: Show Hide

 Date Labels: Show Hide

Joint Typhoon Warning Centre Cyclone Data

Name: NICHOLAS

25 Nov 1985 06:00 UTC to 06 Dec 1985 18:00 UTC

    date/time    lat    long     hPa   cat  kts
1985-11-25 06    8.6   104.0                  25          
1985-11-25 12    8.9   103.6                  25          
1985-11-25 18    8.9   103.1                  30          
1985-11-26 00    8.6   102.7                  35          
1985-11-26 06    8.2   102.2                  35          
1985-11-26 12    8.0   101.9                  35          
1985-11-26 18    7.9   101.6                  35          
1985-11-27 00    7.9   101.3                  35          
1985-11-27 06    8.0   101.1                  35          
1985-11-27 12    8.1   100.9                  35          
1985-11-27 18    8.3   100.8                  35          
1985-11-28 00    8.6   100.7                  35          
1985-11-28 06    9.0   100.8                  35          
1985-11-28 12    9.4   101.0                  35          
1985-11-28 18    9.8   101.4                  35          
1985-11-29 00   10.2   101.8                  35          
1985-11-29 06   10.5   102.3                  35          
1985-11-29 12   10.6   102.9                  35          
1985-11-29 18   10.7   103.5                  35          
1985-11-30 00   10.8   104.2                  35          
1985-11-30 06   10.9   105.0                  35          
1985-11-30 12   10.9   105.8                  35          
1985-11-30 18   10.9   106.6                  30          
1985-12-01 00   10.9   107.4                  25          
1985-12-01 06   10.8   108.2                  25          
1985-12-01 12   10.7   109.0                  25          
1985-12-01 18   10.6   109.8                  30          
1985-12-02 00   10.5   110.6                  30          
1985-12-02 06   10.3   111.4                  35          
1985-12-02 12   10.2   112.1            1     40          
1985-12-02 18   10.1   112.6            1     45          
1985-12-03 00    9.9   113.0            1     50          
1985-12-03 06    9.8   113.4            2     60          
1985-12-03 12    9.8   113.8            2     70          
1985-12-03 18    9.9   114.2            3     75          
1985-12-04 00   10.0   114.4            3     75          
1985-12-04 06   10.2   114.4            3     75          
1985-12-04 12   10.6   114.6            3     75          
1985-12-04 18   11.1   114.7            3     75          
1985-12-05 00   11.4   114.8            2     70          
1985-12-05 06   11.8   114.8            2     65          
1985-12-05 12   12.2   114.8            2     60          
1985-12-05 18   12.6   114.7            2     55          
1985-12-06 00   13.1   114.5            1     50          
1985-12-06 06   13.8   114.3            1     45          
1985-12-06 12   14.5   114.0            1     40          
1985-12-06 18   15.2   113.7                  30          
Winds are 1-min average.

Tropical cyclone tracks developed by Michael Bath using data from the Joint Typhoon Warning Centre Best Tracks and Google Maps.


[Australian Severe Weather index] [Copyright Notice] [Email Contacts] [Search This Site] [Privacy Policy]
Document: tropical_cyclone_nicholas.htm Updated: 18 September 2016